sensor_id;sensor_type;location;lat;lon;timestamp;P1;durP1;ratioP1;P2;durP2;ratioP2
32172;SDS011;18679;45.190;5.722;2023-07-22T00:01:21;2.45;;;1.52;;
32172;SDS011;18679;45.190;5.722;2023-07-22T00:04:25;1.65;;;1.33;;
32172;SDS011;18679;45.190;5.722;2023-07-22T00:07:26;4.68;;;1.63;;
32172;SDS011;18679;45.190;5.722;2023-07-22T00:10:27;1.50;;;1.10;;
32172;SDS011;18679;45.190;5.722;2023-07-22T00:13:28;3.13;;;1.58;;
32172;SDS011;18679;45.190;5.722;2023-07-22T00:16:29;1.50;;;1.08;;
32172;SDS011;18679;45.190;5.722;2023-07-22T00:19:30;3.65;;;1.42;;
32172;SDS011;18679;45.190;5.722;2023-07-22T00:22:30;4.18;;;1.40;;
32172;SDS011;18679;45.190;5.722;2023-07-22T00:25:31;2.47;;;1.70;;
32172;SDS011;18679;45.190;5.722;2023-07-22T00:28:32;3.72;;;1.55;;
32172;SDS011;18679;45.190;5.722;2023-07-22T00:31:33;12.57;;;1.83;;
32172;SDS011;18679;45.190;5.722;2023-07-22T00:34:37;2.45;;;1.73;;
32172;SDS011;18679;45.190;5.722;2023-07-22T00:37:38;2.00;;;1.35;;
32172;SDS011;18679;45.190;5.722;2023-07-22T00:40:39;2.33;;;1.33;;
32172;SDS011;18679;45.190;5.722;2023-07-22T00:43:40;2.13;;;1.38;;
32172;SDS011;18679;45.190;5.722;2023-07-22T00:46:41;2.10;;;1.50;;
32172;SDS011;18679;45.190;5.722;2023-07-22T00:49:42;5.00;;;1.42;;
32172;SDS011;18679;45.190;5.722;2023-07-22T00:52:44;4.35;;;1.75;;
32172;SDS011;18679;45.190;5.722;2023-07-22T00:55:45;3.45;;;1.30;;
32172;SDS011;18679;45.190;5.722;2023-07-22T00:58:46;3.25;;;1.40;;
32172;SDS011;18679;45.190;5.722;2023-07-22T01:01:47;4.93;;;1.50;;
32172;SDS011;18679;45.190;5.722;2023-07-22T01:04:49;2.67;;;1.40;;
32172;SDS011;18679;45.190;5.722;2023-07-22T01:07:59;3.20;;;1.77;;
32172;SDS011;18679;45.190;5.722;2023-07-22T01:11:06;8.23;;;1.45;;
32172;SDS011;18679;45.190;5.722;2023-07-22T01:14:07;2.17;;;1.10;;
32172;SDS011;18679;45.190;5.722;2023-07-22T01:17:09;2.83;;;1.40;;
32172;SDS011;18679;45.190;5.722;2023-07-22T01:20:11;3.42;;;1.45;;
32172;SDS011;18679;45.190;5.722;2023-07-22T01:23:14;2.95;;;1.60;;
32172;SDS011;18679;45.190;5.722;2023-07-22T01:26:15;7.13;;;1.75;;
32172;SDS011;18679;45.190;5.722;2023-07-22T01:29:17;2.28;;;1.30;;
32172;SDS011;18679;45.190;5.722;2023-07-22T01:32:18;4.72;;;2.00;;
32172;SDS011;18679;45.190;5.722;2023-07-22T01:35:20;2.08;;;1.42;;
32172;SDS011;18679;45.190;5.722;2023-07-22T01:38:21;1.55;;;1.30;;
32172;SDS011;18679;45.190;5.722;2023-07-22T01:41:22;2.55;;;1.20;;
32172;SDS011;18679;45.190;5.722;2023-07-22T01:44:23;2.83;;;1.52;;
32172;SDS011;18679;45.190;5.722;2023-07-22T01:47:24;3.10;;;1.67;;
32172;SDS011;18679;45.190;5.722;2023-07-22T01:50:25;2.95;;;1.30;;
32172;SDS011;18679;45.190;5.722;2023-07-22T01:53:26;1.75;;;1.27;;
32172;SDS011;18679;45.190;5.722;2023-07-22T01:56:26;2.40;;;1.55;;
32172;SDS011;18679;45.190;5.722;2023-07-22T01:59:27;3.80;;;1.23;;
32172;SDS011;18679;45.190;5.722;2023-07-22T02:02:31;5.03;;;1.95;;
32172;SDS011;18679;45.190;5.722;2023-07-22T02:05:32;5.90;;;1.38;;
32172;SDS011;18679;45.190;5.722;2023-07-22T02:08:33;1.95;;;1.40;;
32172;SDS011;18679;45.190;5.722;2023-07-22T02:11:37;3.35;;;1.52;;
32172;SDS011;18679;45.190;5.722;2023-07-22T02:14:38;2.78;;;1.52;;
32172;SDS011;18679;45.190;5.722;2023-07-22T02:17:40;4.53;;;1.80;;
32172;SDS011;18679;45.190;5.722;2023-07-22T02:20:44;2.80;;;1.70;;
32172;SDS011;18679;45.190;5.722;2023-07-22T02:23:45;4.43;;;1.90;;
32172;SDS011;18679;45.190;5.722;2023-07-22T02:26:46;2.45;;;1.58;;
32172;SDS011;18679;45.190;5.722;2023-07-22T02:29:47;8.98;;;1.77;;
32172;SDS011;18679;45.190;5.722;2023-07-22T02:32:48;3.75;;;1.58;;
32172;SDS011;18679;45.190;5.722;2023-07-22T02:35:49;1.98;;;1.25;;
32172;SDS011;18679;45.190;5.722;2023-07-22T02:38:50;4.05;;;1.65;;
32172;SDS011;18679;45.190;5.722;2023-07-22T02:41:51;4.85;;;1.65;;
32172;SDS011;18679;45.190;5.722;2023-07-22T02:44:51;3.63;;;1.48;;
32172;SDS011;18679;45.190;5.722;2023-07-22T02:47:52;4.60;;;1.58;;
32172;SDS011;18679;45.190;5.722;2023-07-22T02:50:54;3.53;;;1.30;;
32172;SDS011;18679;45.190;5.722;2023-07-22T02:53:55;3.10;;;1.30;;
32172;SDS011;18679;45.190;5.722;2023-07-22T02:56:56;4.97;;;1.45;;
32172;SDS011;18679;45.190;5.722;2023-07-22T02:59:57;2.70;;;1.33;;
32172;SDS011;18679;45.190;5.722;2023-07-22T03:02:58;3.50;;;2.03;;
32172;SDS011;18679;45.190;5.722;2023-07-22T03:06:02;2.85;;;1.33;;
32172;SDS011;18679;45.190;5.722;2023-07-22T03:09:04;2.88;;;1.52;;
32172;SDS011;18679;45.190;5.722;2023-07-22T03:12:05;2.13;;;1.38;;
32172;SDS011;18679;45.190;5.722;2023-07-22T03:15:32;5.32;;;1.40;;
32172;SDS011;18679;45.190;5.722;2023-07-22T03:18:36;3.03;;;1.58;;
32172;SDS011;18679;45.190;5.722;2023-07-22T03:21:39;4.00;;;1.73;;
32172;SDS011;18679;45.190;5.722;2023-07-22T03:24:40;4.32;;;1.60;;
32172;SDS011;18679;45.190;5.722;2023-07-22T03:27:40;5.05;;;1.42;;
32172;SDS011;18679;45.190;5.722;2023-07-22T03:30:44;4.65;;;1.58;;
32172;SDS011;18679;45.190;5.722;2023-07-22T03:33:45;2.65;;;1.30;;
32172;SDS011;18679;45.190;5.722;2023-07-22T03:36:47;5.65;;;1.75;;
32172;SDS011;18679;45.190;5.722;2023-07-22T03:39:47;2.70;;;1.48;;
32172;SDS011;18679;45.190;5.722;2023-07-22T03:42:49;3.40;;;1.77;;
32172;SDS011;18679;45.190;5.722;2023-07-22T03:45:50;3.70;;;1.73;;
32172;SDS011;18679;45.190;5.722;2023-07-22T03:48:51;2.10;;;1.35;;
32172;SDS011;18679;45.190;5.722;2023-07-22T03:51:52;2.30;;;1.60;;
32172;SDS011;18679;45.190;5.722;2023-07-22T03:54:53;2.35;;;1.35;;
32172;SDS011;18679;45.190;5.722;2023-07-22T03:57:54;5.10;;;1.73;;
32172;SDS011;18679;45.190;5.722;2023-07-22T04:00:57;2.38;;;1.58;;
32172;SDS011;18679;45.190;5.722;2023-07-22T04:03:58;2.45;;;1.50;;
32172;SDS011;18679;45.190;5.722;2023-07-22T04:06:59;5.75;;;1.30;;
32172;SDS011;18679;45.190;5.722;2023-07-22T04:10:03;3.83;;;2.00;;
32172;SDS011;18679;45.190;5.722;2023-07-22T04:13:06;6.25;;;1.40;;
32172;SDS011;18679;45.190;5.722;2023-07-22T04:16:09;4.10;;;1.65;;
32172;SDS011;18679;45.190;5.722;2023-07-22T04:19:10;7.70;;;1.75;;
32172;SDS011;18679;45.190;5.722;2023-07-22T04:22:11;1.58;;;1.15;;
32172;SDS011;18679;45.190;5.722;2023-07-22T04:28:15;3.97;;;1.98;;
32172;SDS011;18679;45.190;5.722;2023-07-22T04:31:15;3.33;;;1.40;;
32172;SDS011;18679;45.190;5.722;2023-07-22T04:34:16;2.75;;;1.48;;
32172;SDS011;18679;45.190;5.722;2023-07-22T04:37:20;3.78;;;1.60;;
32172;SDS011;18679;45.190;5.722;2023-07-22T04:40:20;3.88;;;1.73;;
32172;SDS011;18679;45.190;5.722;2023-07-22T04:43:21;2.70;;;1.48;;
32172;SDS011;18679;45.190;5.722;2023-07-22T04:46:22;3.35;;;1.70;;
32172;SDS011;18679;45.190;5.722;2023-07-22T04:49:23;3.45;;;1.50;;
32172;SDS011;18679;45.190;5.722;2023-07-22T04:52:24;4.28;;;2.20;;
32172;SDS011;18679;45.190;5.722;2023-07-22T04:55:25;3.28;;;1.60;;
32172;SDS011;18679;45.190;5.722;2023-07-22T04:58:29;3.53;;;1.70;;
32172;SDS011;18679;45.190;5.722;2023-07-22T05:01:30;2.33;;;1.30;;
32172;SDS011;18679;45.190;5.722;2023-07-22T05:04:34;4.68;;;2.00;;
32172;SDS011;18679;45.190;5.722;2023-07-22T05:07:35;3.58;;;1.88;;
32172;SDS011;18679;45.190;5.722;2023-07-22T05:10:36;3.83;;;1.40;;
32172;SDS011;18679;45.190;5.722;2023-07-22T05:13:38;2.45;;;1.77;;
32172;SDS011;18679;45.190;5.722;2023-07-22T05:16:39;4.40;;;2.22;;
32172;SDS011;18679;45.190;5.722;2023-07-22T05:19:42;4.85;;;2.03;;
32172;SDS011;18679;45.190;5.722;2023-07-22T05:22:43;2.97;;;1.52;;
32172;SDS011;18679;45.190;5.722;2023-07-22T05:25:53;5.82;;;1.45;;
32172;SDS011;18679;45.190;5.722;2023-07-22T05:28:54;4.38;;;1.67;;
32172;SDS011;18679;45.190;5.722;2023-07-22T05:31:55;3.00;;;1.92;;
32172;SDS011;18679;45.190;5.722;2023-07-22T05:34:56;5.05;;;1.98;;
32172;SDS011;18679;45.190;5.722;2023-07-22T05:38:00;4.13;;;1.77;;
32172;SDS011;18679;45.190;5.722;2023-07-22T05:41:04;4.00;;;1.73;;
32172;SDS011;18679;45.190;5.722;2023-07-22T05:44:05;2.88;;;1.65;;
32172;SDS011;18679;45.190;5.722;2023-07-22T05:47:06;3.05;;;1.60;;
32172;SDS011;18679;45.190;5.722;2023-07-22T05:50:07;10.15;;;1.80;;
32172;SDS011;18679;45.190;5.722;2023-07-22T05:53:10;4.88;;;1.92;;
32172;SDS011;18679;45.190;5.722;2023-07-22T05:56:12;8.48;;;1.58;;
32172;SDS011;18679;45.190;5.722;2023-07-22T05:59:13;5.80;;;1.92;;
32172;SDS011;18679;45.190;5.722;2023-07-22T06:02:14;10.18;;;1.88;;
32172;SDS011;18679;45.190;5.722;2023-07-22T06:05:15;3.33;;;1.65;;
32172;SDS011;18679;45.190;5.722;2023-07-22T06:08:19;5.60;;;2.00;;
32172;SDS011;18679;45.190;5.722;2023-07-22T06:11:23;5.90;;;1.50;;
32172;SDS011;18679;45.190;5.722;2023-07-22T06:14:31;3.58;;;1.58;;
32172;SDS011;18679;45.190;5.722;2023-07-22T06:17:32;2.65;;;1.55;;
32172;SDS011;18679;45.190;5.722;2023-07-22T06:20:45;4.22;;;1.50;;
32172;SDS011;18679;45.190;5.722;2023-07-22T06:23:46;3.95;;;1.75;;
32172;SDS011;18679;45.190;5.722;2023-07-22T06:26:47;3.63;;;1.63;;
32172;SDS011;18679;45.190;5.722;2023-07-22T06:29:54;2.72;;;1.63;;
32172;SDS011;18679;45.190;5.722;2023-07-22T06:33:04;7.03;;;1.90;;
32172;SDS011;18679;45.190;5.722;2023-07-22T06:36:28;3.33;;;1.63;;
32172;SDS011;18679;45.190;5.722;2023-07-22T06:39:29;2.63;;;1.50;;
32172;SDS011;18679;45.190;5.722;2023-07-22T06:42:34;11.48;;;1.80;;
32172;SDS011;18679;45.190;5.722;2023-07-22T06:45:45;3.47;;;1.73;;
32172;SDS011;18679;45.190;5.722;2023-07-22T06:48:46;2.85;;;1.65;;
32172;SDS011;18679;45.190;5.722;2023-07-22T06:51:47;3.88;;;1.50;;
32172;SDS011;18679;45.190;5.722;2023-07-22T06:54:51;5.30;;;1.92;;
32172;SDS011;18679;45.190;5.722;2023-07-22T06:57:58;2.05;;;1.33;;
32172;SDS011;18679;45.190;5.722;2023-07-22T07:01:09;4.25;;;1.70;;
32172;SDS011;18679;45.190;5.722;2023-07-22T07:04:10;3.60;;;1.75;;
32172;SDS011;18679;45.190;5.722;2023-07-22T07:07:14;5.70;;;1.50;;
32172;SDS011;18679;45.190;5.722;2023-07-22T07:10:24;2.85;;;1.88;;
32172;SDS011;18679;45.190;5.722;2023-07-22T07:13:25;4.78;;;1.83;;
32172;SDS011;18679;45.190;5.722;2023-07-22T07:16:30;3.25;;;1.83;;
32172;SDS011;18679;45.190;5.722;2023-07-22T07:19:31;6.28;;;2.30;;
32172;SDS011;18679;45.190;5.722;2023-07-22T07:22:45;2.97;;;1.70;;
32172;SDS011;18679;45.190;5.722;2023-07-22T07:26:33;10.55;;;2.08;;
32172;SDS011;18679;45.190;5.722;2023-07-22T07:29:39;4.18;;;1.73;;
32172;SDS011;18679;45.190;5.722;2023-07-22T07:32:40;4.00;;;1.80;;
32172;SDS011;18679;45.190;5.722;2023-07-22T07:35:45;2.72;;;1.80;;
32172;SDS011;18679;45.190;5.722;2023-07-22T07:38:51;6.88;;;2.08;;
32172;SDS011;18679;45.190;5.722;2023-07-22T07:42:02;2.95;;;2.17;;
32172;SDS011;18679;45.190;5.722;2023-07-22T07:45:03;3.95;;;1.92;;
32172;SDS011;18679;45.190;5.722;2023-07-22T07:48:14;3.60;;;2.08;;
32172;SDS011;18679;45.190;5.722;2023-07-22T07:51:24;6.32;;;1.92;;
32172;SDS011;18679;45.190;5.722;2023-07-22T07:54:33;3.42;;;1.88;;
32172;SDS011;18679;45.190;5.722;2023-07-22T07:57:34;4.78;;;1.85;;
32172;SDS011;18679;45.190;5.722;2023-07-22T08:00:43;4.70;;;1.60;;
32172;SDS011;18679;45.190;5.722;2023-07-22T08:03:45;2.90;;;1.90;;
32172;SDS011;18679;45.190;5.722;2023-07-22T08:06:49;7.20;;;1.98;;
32172;SDS011;18679;45.190;5.722;2023-07-22T08:10:01;6.47;;;1.73;;
32172;SDS011;18679;45.190;5.722;2023-07-22T08:13:20;4.93;;;1.95;;
32172;SDS011;18679;45.190;5.722;2023-07-22T08:16:43;2.00;;;1.60;;
32172;SDS011;18679;45.190;5.722;2023-07-22T08:20:13;4.72;;;1.90;;
32172;SDS011;18679;45.190;5.722;2023-07-22T08:23:25;14.48;;;2.10;;
32172;SDS011;18679;45.190;5.722;2023-07-22T08:26:41;3.55;;;1.67;;
32172;SDS011;18679;45.190;5.722;2023-07-22T08:30:31;6.00;;;1.55;;
32172;SDS011;18679;45.190;5.722;2023-07-22T08:33:51;8.55;;;2.05;;
32172;SDS011;18679;45.190;5.722;2023-07-22T08:37:44;3.60;;;2.05;;
32172;SDS011;18679;45.190;5.722;2023-07-22T08:40:51;3.03;;;1.65;;
32172;SDS011;18679;45.190;5.722;2023-07-22T08:44:05;4.35;;;2.17;;
32172;SDS011;18679;45.190;5.722;2023-07-22T08:47:21;4.75;;;1.95;;
32172;SDS011;18679;45.190;5.722;2023-07-22T08:50:34;3.53;;;1.80;;
32172;SDS011;18679;45.190;5.722;2023-07-22T08:53:37;7.30;;;1.98;;
32172;SDS011;18679;45.190;5.722;2023-07-22T08:56:38;3.00;;;1.75;;
32172;SDS011;18679;45.190;5.722;2023-07-22T08:59:40;4.82;;;2.17;;
32172;SDS011;18679;45.190;5.722;2023-07-22T09:02:42;8.77;;;2.15;;
32172;SDS011;18679;45.190;5.722;2023-07-22T09:05:43;4.00;;;2.00;;
32172;SDS011;18679;45.190;5.722;2023-07-22T09:08:54;3.17;;;1.92;;
32172;SDS011;18679;45.190;5.722;2023-07-22T09:12:02;4.20;;;1.40;;
32172;SDS011;18679;45.190;5.722;2023-07-22T09:15:13;3.30;;;1.67;;
32172;SDS011;18679;45.190;5.722;2023-07-22T09:18:26;3.55;;;1.85;;
32172;SDS011;18679;45.190;5.722;2023-07-22T09:21:30;1.70;;;1.23;;
32172;SDS011;18679;45.190;5.722;2023-07-22T09:24:40;6.57;;;1.67;;
32172;SDS011;18679;45.190;5.722;2023-07-22T09:27:55;2.92;;;1.85;;
32172;SDS011;18679;45.190;5.722;2023-07-22T09:31:13;2.70;;;1.80;;
32172;SDS011;18679;45.190;5.722;2023-07-22T09:34:14;3.35;;;1.58;;
32172;SDS011;18679;45.190;5.722;2023-07-22T09:37:24;3.90;;;1.27;;
32172;SDS011;18679;45.190;5.722;2023-07-22T09:40:39;2.03;;;1.40;;
32172;SDS011;18679;45.190;5.722;2023-07-22T09:43:46;2.80;;;1.65;;
32172;SDS011;18679;45.190;5.722;2023-07-22T09:46:49;2.00;;;1.37;;
32172;SDS011;18679;45.190;5.722;2023-07-22T09:50:02;1.88;;;1.10;;
32172;SDS011;18679;45.190;5.722;2023-07-22T09:53:12;2.85;;;1.33;;
32172;SDS011;18679;45.190;5.722;2023-07-22T09:56:33;1.98;;;1.30;;
32172;SDS011;18679;45.190;5.722;2023-07-22T09:59:44;6.13;;;1.80;;
32172;SDS011;18679;45.190;5.722;2023-07-22T10:02:49;2.22;;;1.52;;
32172;SDS011;18679;45.190;5.722;2023-07-22T10:06:02;4.05;;;1.60;;
32172;SDS011;18679;45.190;5.722;2023-07-22T10:09:11;7.95;;;1.50;;
32172;SDS011;18679;45.190;5.722;2023-07-22T10:12:14;4.28;;;1.85;;
32172;SDS011;18679;45.190;5.722;2023-07-22T10:15:18;5.30;;;2.22;;
32172;SDS011;18679;45.190;5.722;2023-07-22T10:18:37;2.30;;;1.17;;
32172;SDS011;18679;45.190;5.722;2023-07-22T10:21:48;3.33;;;1.60;;
32172;SDS011;18679;45.190;5.722;2023-07-22T10:25:05;1.77;;;1.30;;
32172;SDS011;18679;45.190;5.722;2023-07-22T10:28:09;3.38;;;1.70;;
32172;SDS011;18679;45.190;5.722;2023-07-22T10:31:15;3.17;;;1.20;;
32172;SDS011;18679;45.190;5.722;2023-07-22T10:34:23;1.95;;;1.35;;
32172;SDS011;18679;45.190;5.722;2023-07-22T10:37:32;3.65;;;1.35;;
32172;SDS011;18679;45.190;5.722;2023-07-22T10:43:55;2.75;;;1.60;;
32172;SDS011;18679;45.190;5.722;2023-07-22T10:47:01;3.92;;;1.63;;
32172;SDS011;18679;45.190;5.722;2023-07-22T10:50:05;2.70;;;1.17;;
32172;SDS011;18679;45.190;5.722;2023-07-22T10:53:11;1.77;;;1.38;;
32172;SDS011;18679;45.190;5.722;2023-07-22T10:56:19;3.22;;;1.67;;
32172;SDS011;18679;45.190;5.722;2023-07-22T10:59:26;2.40;;;1.40;;
32172;SDS011;18679;45.190;5.722;2023-07-22T11:02:28;10.13;;;1.40;;
32172;SDS011;18679;45.190;5.722;2023-07-22T11:05:46;4.63;;;1.60;;
32172;SDS011;18679;45.190;5.722;2023-07-22T11:08:48;2.92;;;1.50;;
32172;SDS011;18679;45.190;5.722;2023-07-22T11:11:49;1.60;;;1.45;;
32172;SDS011;18679;45.190;5.722;2023-07-22T11:17:52;3.95;;;1.90;;
32172;SDS011;18679;45.190;5.722;2023-07-22T11:20:54;3.72;;;1.48;;
32172;SDS011;18679;45.190;5.722;2023-07-22T11:23:55;2.17;;;1.40;;
32172;SDS011;18679;45.190;5.722;2023-07-22T11:26:59;3.03;;;1.73;;
32172;SDS011;18679;45.190;5.722;2023-07-22T11:30:10;2.25;;;1.40;;
32172;SDS011;18679;45.190;5.722;2023-07-22T11:33:14;2.15;;;1.38;;
32172;SDS011;18679;45.190;5.722;2023-07-22T11:36:15;1.98;;;1.30;;
32172;SDS011;18679;45.190;5.722;2023-07-22T11:39:20;3.03;;;1.48;;
32172;SDS011;18679;45.190;5.722;2023-07-22T11:42:22;1.15;;;1.05;;
32172;SDS011;18679;45.190;5.722;2023-07-22T11:45:24;2.72;;;1.10;;
32172;SDS011;18679;45.190;5.722;2023-07-22T11:48:25;1.17;;;0.88;;
32172;SDS011;18679;45.190;5.722;2023-07-22T11:51:25;2.42;;;1.30;;
32172;SDS011;18679;45.190;5.722;2023-07-22T11:54:27;1.50;;;0.90;;
32172;SDS011;18679;45.190;5.722;2023-07-22T11:57:29;2.42;;;1.15;;
32172;SDS011;18679;45.190;5.722;2023-07-22T12:00:32;2.03;;;1.13;;
32172;SDS011;18679;45.190;5.722;2023-07-22T12:03:33;2.67;;;1.00;;
32172;SDS011;18679;45.190;5.722;2023-07-22T12:06:34;1.55;;;1.00;;
32172;SDS011;18679;45.190;5.722;2023-07-22T12:09:35;2.35;;;1.65;;
32172;SDS011;18679;45.190;5.722;2023-07-22T12:12:37;1.92;;;1.00;;
32172;SDS011;18679;45.190;5.722;2023-07-22T12:16:02;1.73;;;1.10;;
32172;SDS011;18679;45.190;5.722;2023-07-22T12:19:05;1.15;;;0.82;;
32172;SDS011;18679;45.190;5.722;2023-07-22T12:22:06;2.10;;;1.02;;
32172;SDS011;18679;45.190;5.722;2023-07-22T12:25:07;1.10;;;0.80;;
32172;SDS011;18679;45.190;5.722;2023-07-22T12:28:09;2.72;;;1.10;;
32172;SDS011;18679;45.190;5.722;2023-07-22T12:31:11;0.90;;;0.82;;
32172;SDS011;18679;45.190;5.722;2023-07-22T12:34:12;1.05;;;0.95;;
32172;SDS011;18679;45.190;5.722;2023-07-22T12:37:12;1.17;;;0.98;;
32172;SDS011;18679;45.190;5.722;2023-07-22T12:40:13;2.47;;;1.45;;
32172;SDS011;18679;45.190;5.722;2023-07-22T12:43:14;1.02;;;0.88;;
32172;SDS011;18679;45.190;5.722;2023-07-22T12:46:15;2.22;;;1.10;;
32172;SDS011;18679;45.190;5.722;2023-07-22T12:49:16;2.85;;;0.60;;
32172;SDS011;18679;45.190;5.722;2023-07-22T12:52:17;2.97;;;1.20;;
32172;SDS011;18679;45.190;5.722;2023-07-22T12:55:18;1.13;;;0.95;;
32172;SDS011;18679;45.190;5.722;2023-07-22T12:58:19;1.70;;;0.90;;
32172;SDS011;18679;45.190;5.722;2023-07-22T13:01:20;1.27;;;0.88;;
32172;SDS011;18679;45.190;5.722;2023-07-22T13:04:23;3.30;;;0.98;;
32172;SDS011;18679;45.190;5.722;2023-07-22T13:07:24;4.82;;;1.00;;
32172;SDS011;18679;45.190;5.722;2023-07-22T13:10:25;1.40;;;1.00;;
32172;SDS011;18679;45.190;5.722;2023-07-22T13:13:26;1.63;;;1.17;;
32172;SDS011;18679;45.190;5.722;2023-07-22T13:16:27;1.45;;;1.10;;
32172;SDS011;18679;45.190;5.722;2023-07-22T13:19:27;1.30;;;1.05;;
32172;SDS011;18679;45.190;5.722;2023-07-22T13:22:28;1.90;;;1.20;;
32172;SDS011;18679;45.190;5.722;2023-07-22T13:25:29;0.90;;;0.73;;
32172;SDS011;18679;45.190;5.722;2023-07-22T13:28:30;3.03;;;0.90;;
32172;SDS011;18679;45.190;5.722;2023-07-22T13:31:31;0.80;;;0.70;;
32172;SDS011;18679;45.190;5.722;2023-07-22T13:34:32;1.52;;;0.95;;
32172;SDS011;18679;45.190;5.722;2023-07-22T13:37:33;0.98;;;0.82;;
32172;SDS011;18679;45.190;5.722;2023-07-22T13:40:34;0.88;;;0.80;;
32172;SDS011;18679;45.190;5.722;2023-07-22T13:43:35;1.38;;;1.00;;
32172;SDS011;18679;45.190;5.722;2023-07-22T13:46:35;1.05;;;0.88;;
32172;SDS011;18679;45.190;5.722;2023-07-22T13:49:36;2.40;;;0.95;;
32172;SDS011;18679;45.190;5.722;2023-07-22T13:52:37;1.00;;;0.90;;
32172;SDS011;18679;45.190;5.722;2023-07-22T13:55:38;2.88;;;1.02;;
32172;SDS011;18679;45.190;5.722;2023-07-22T13:58:39;1.10;;;0.80;;
32172;SDS011;18679;45.190;5.722;2023-07-22T14:01:40;0.80;;;0.80;;
32172;SDS011;18679;45.190;5.722;2023-07-22T14:04:40;1.55;;;0.93;;
32172;SDS011;18679;45.190;5.722;2023-07-22T14:07:41;1.75;;;0.77;;
32172;SDS011;18679;45.190;5.722;2023-07-22T14:10:42;2.00;;;1.08;;
32172;SDS011;18679;45.190;5.722;2023-07-22T14:13:43;1.27;;;1.08;;
32172;SDS011;18679;45.190;5.722;2023-07-22T14:16:44;2.50;;;1.63;;
32172;SDS011;18679;45.190;5.722;2023-07-22T14:19:45;4.28;;;1.08;;
32172;SDS011;18679;45.190;5.722;2023-07-22T14:22:46;1.02;;;0.82;;
32172;SDS011;18679;45.190;5.722;2023-07-22T14:25:49;1.60;;;1.00;;
32172;SDS011;18679;45.190;5.722;2023-07-22T14:28:51;1.20;;;0.90;;
32172;SDS011;18679;45.190;5.722;2023-07-22T14:31:51;0.90;;;0.80;;
32172;SDS011;18679;45.190;5.722;2023-07-22T14:34:52;2.95;;;0.98;;
32172;SDS011;18679;45.190;5.722;2023-07-22T14:37:53;7.53;;;1.05;;
32172;SDS011;18679;45.190;5.722;2023-07-22T14:40:54;8.88;;;1.17;;
32172;SDS011;18679;45.190;5.722;2023-07-22T14:43:55;1.48;;;1.10;;
32172;SDS011;18679;45.190;5.722;2023-07-22T14:46:56;1.92;;;1.20;;
32172;SDS011;18679;45.190;5.722;2023-07-22T14:49:56;2.70;;;1.35;;
32172;SDS011;18679;45.190;5.722;2023-07-22T14:52:57;2.90;;;0.80;;
32172;SDS011;18679;45.190;5.722;2023-07-22T14:55:59;1.23;;;1.13;;
32172;SDS011;18679;45.190;5.722;2023-07-22T14:59:00;2.08;;;1.20;;
32172;SDS011;18679;45.190;5.722;2023-07-22T15:02:00;1.48;;;1.08;;
32172;SDS011;18679;45.190;5.722;2023-07-22T15:05:01;1.10;;;1.00;;
32172;SDS011;18679;45.190;5.722;2023-07-22T15:08:02;2.45;;;1.30;;
32172;SDS011;18679;45.190;5.722;2023-07-22T15:11:03;1.42;;;1.30;;
32172;SDS011;18679;45.190;5.722;2023-07-22T15:14:04;3.63;;;1.10;;
32172;SDS011;18679;45.190;5.722;2023-07-22T15:17:06;2.65;;;1.15;;
32172;SDS011;18679;45.190;5.722;2023-07-22T15:20:07;1.08;;;0.88;;
32172;SDS011;18679;45.190;5.722;2023-07-22T15:23:08;5.40;;;1.10;;
32172;SDS011;18679;45.190;5.722;2023-07-22T15:26:09;18.50;;;1.50;;
32172;SDS011;18679;45.190;5.722;2023-07-22T15:29:09;1.17;;;1.00;;
32172;SDS011;18679;45.190;5.722;2023-07-22T15:32:10;1.48;;;1.00;;
32172;SDS011;18679;45.190;5.722;2023-07-22T15:35:12;1.40;;;0.90;;
32172;SDS011;18679;45.190;5.722;2023-07-22T15:38:14;1.73;;;1.10;;
32172;SDS011;18679;45.190;5.722;2023-07-22T15:41:15;1.55;;;1.13;;
32172;SDS011;18679;45.190;5.722;2023-07-22T15:44:16;2.55;;;1.05;;
32172;SDS011;18679;45.190;5.722;2023-07-22T15:47:17;1.42;;;0.80;;
32172;SDS011;18679;45.190;5.722;2023-07-22T15:50:18;1.80;;;1.00;;
32172;SDS011;18679;45.190;5.722;2023-07-22T15:53:19;3.72;;;1.15;;
32172;SDS011;18679;45.190;5.722;2023-07-22T15:56:19;2.55;;;1.15;;
32172;SDS011;18679;45.190;5.722;2023-07-22T15:59:20;1.70;;;1.00;;
32172;SDS011;18679;45.190;5.722;2023-07-22T16:02:21;1.42;;;0.80;;
32172;SDS011;18679;45.190;5.722;2023-07-22T16:05:22;1.05;;;0.95;;
32172;SDS011;18679;45.190;5.722;2023-07-22T16:08:23;2.28;;;1.27;;
32172;SDS011;18679;45.190;5.722;2023-07-22T16:11:25;1.58;;;1.00;;
32172;SDS011;18679;45.190;5.722;2023-07-22T16:14:25;0.98;;;0.90;;
32172;SDS011;18679;45.190;5.722;2023-07-22T16:17:29;3.05;;;1.02;;
32172;SDS011;18679;45.190;5.722;2023-07-22T16:20:29;1.90;;;0.95;;
32172;SDS011;18679;45.190;5.722;2023-07-22T16:23:31;3.95;;;1.10;;
32172;SDS011;18679;45.190;5.722;2023-07-22T16:26:32;4.13;;;0.95;;
32172;SDS011;18679;45.190;5.722;2023-07-22T16:29:33;2.88;;;0.95;;
32172;SDS011;18679;45.190;5.722;2023-07-22T16:32:36;1.17;;;0.90;;
32172;SDS011;18679;45.190;5.722;2023-07-22T16:35:37;2.30;;;1.00;;
32172;SDS011;18679;45.190;5.722;2023-07-22T16:38:39;1.70;;;1.02;;
32172;SDS011;18679;45.190;5.722;2023-07-22T16:41:40;2.42;;;1.38;;
32172;SDS011;18679;45.190;5.722;2023-07-22T16:44:41;5.85;;;1.35;;
32172;SDS011;18679;45.190;5.722;2023-07-22T16:47:42;3.22;;;1.20;;
32172;SDS011;18679;45.190;5.722;2023-07-22T16:50:43;2.45;;;1.85;;
32172;SDS011;18679;45.190;5.722;2023-07-22T16:53:43;1.88;;;1.20;;
32172;SDS011;18679;45.190;5.722;2023-07-22T16:56:44;2.22;;;1.00;;
32172;SDS011;18679;45.190;5.722;2023-07-22T16:59:46;1.58;;;1.27;;
32172;SDS011;18679;45.190;5.722;2023-07-22T17:02:47;2.80;;;1.20;;
32172;SDS011;18679;45.190;5.722;2023-07-22T17:05:48;1.17;;;0.88;;
32172;SDS011;18679;45.190;5.722;2023-07-22T17:08:49;1.60;;;0.95;;
32172;SDS011;18679;45.190;5.722;2023-07-22T17:11:50;1.10;;;0.93;;
32172;SDS011;18679;45.190;5.722;2023-07-22T17:14:50;4.43;;;1.45;;
32172;SDS011;18679;45.190;5.722;2023-07-22T17:17:51;7.22;;;1.58;;
32172;SDS011;18679;45.190;5.722;2023-07-22T17:20:52;1.67;;;1.08;;
32172;SDS011;18679;45.190;5.722;2023-07-22T17:23:53;3.33;;;1.67;;
32172;SDS011;18679;45.190;5.722;2023-07-22T17:26:53;2.47;;;1.30;;
32172;SDS011;18679;45.190;5.722;2023-07-22T17:29:54;2.72;;;1.30;;
32172;SDS011;18679;45.190;5.722;2023-07-22T17:32:55;2.20;;;1.40;;
32172;SDS011;18679;45.190;5.722;2023-07-22T17:35:57;3.42;;;1.73;;
32172;SDS011;18679;45.190;5.722;2023-07-22T17:38:58;3.92;;;1.40;;
32172;SDS011;18679;45.190;5.722;2023-07-22T17:41:59;2.53;;;0.95;;
32172;SDS011;18679;45.190;5.722;2023-07-22T17:45:00;2.20;;;1.00;;
32172;SDS011;18679;45.190;5.722;2023-07-22T17:48:01;4.65;;;1.50;;
32172;SDS011;18679;45.190;5.722;2023-07-22T17:51:02;3.45;;;1.20;;
32172;SDS011;18679;45.190;5.722;2023-07-22T17:54:03;9.15;;;1.40;;
32172;SDS011;18679;45.190;5.722;2023-07-22T17:57:04;4.97;;;1.35;;
32172;SDS011;18679;45.190;5.722;2023-07-22T18:00:05;3.90;;;1.85;;
32172;SDS011;18679;45.190;5.722;2023-07-22T18:03:11;5.45;;;1.80;;
32172;SDS011;18679;45.190;5.722;2023-07-22T18:06:12;4.22;;;1.17;;
32172;SDS011;18679;45.190;5.722;2023-07-22T18:09:15;7.60;;;1.70;;
32172;SDS011;18679;45.190;5.722;2023-07-22T18:12:15;6.82;;;1.67;;
32172;SDS011;18679;45.190;5.722;2023-07-22T18:15:16;4.35;;;2.10;;
32172;SDS011;18679;45.190;5.722;2023-07-22T18:18:17;2.13;;;1.30;;
32172;SDS011;18679;45.190;5.722;2023-07-22T18:21:18;1.52;;;1.00;;
32172;SDS011;18679;45.190;5.722;2023-07-22T18:24:19;2.63;;;1.20;;
32172;SDS011;18679;45.190;5.722;2023-07-22T18:27:19;1.77;;;1.23;;
32172;SDS011;18679;45.190;5.722;2023-07-22T18:30:20;2.83;;;1.52;;
32172;SDS011;18679;45.190;5.722;2023-07-22T18:33:21;4.50;;;1.13;;
32172;SDS011;18679;45.190;5.722;2023-07-22T18:36:22;3.50;;;1.73;;